createdAt,value
2018-12-14T00:01:08.386Z,-0.80
2018-12-14T00:03:36.806Z,-0.90
2018-12-14T00:06:05.094Z,-0.80
2018-12-14T00:08:33.342Z,-0.80
2018-12-14T00:11:02.990Z,-0.80
2018-12-14T00:13:31.272Z,-0.80
2018-12-14T00:15:59.561Z,-0.70
2018-12-14T00:18:27.895Z,-0.70
2018-12-14T00:20:56.162Z,-0.70
2018-12-14T00:23:24.495Z,-0.70
2018-12-14T00:25:52.741Z,-0.70
2018-12-14T00:28:20.977Z,-0.70
2018-12-14T00:30:49.267Z,-0.80
2018-12-14T00:33:18.163Z,-0.90
2018-12-14T00:35:47.198Z,-0.90
2018-12-14T00:38:15.510Z,-0.90
2018-12-14T00:40:43.802Z,-0.90
2018-12-14T00:43:12.073Z,-0.90
2018-12-14T00:45:40.314Z,-0.90
2018-12-14T00:48:08.580Z,-0.90
2018-12-14T00:50:36.942Z,-1.00
2018-12-14T00:53:05.187Z,-1.00
2018-12-14T00:55:33.966Z,-1.00
2018-12-14T00:58:02.182Z,-1.00
2018-12-14T01:00:30.410Z,-1.00
2018-12-14T01:02:58.682Z,-1.10
2018-12-14T01:05:27.533Z,-1.00
2018-12-14T01:07:56.078Z,-1.00
2018-12-14T01:10:24.542Z,-1.00
2018-12-14T01:12:52.839Z,-1.00
2018-12-14T01:15:21.308Z,-1.00
2018-12-14T01:17:49.691Z,-1.00
2018-12-14T01:20:17.979Z,-1.00
2018-12-14T01:22:47.810Z,-0.90
2018-12-14T01:25:16.329Z,-1.00
2018-12-14T01:27:45.277Z,-0.90
2018-12-14T01:30:13.589Z,-0.90
2018-12-14T01:32:41.902Z,-1.00
2018-12-14T01:35:10.238Z,-1.00
2018-12-14T01:37:38.560Z,-1.00
2018-12-14T01:40:08.040Z,-0.90
2018-12-14T01:42:36.266Z,-1.10
2018-12-14T01:45:05.317Z,-1.10
2018-12-14T01:47:33.910Z,-1.10
2018-12-14T01:50:02.378Z,-1.10
2018-12-14T01:52:30.950Z,-1.00
2018-12-14T01:54:59.269Z,-1.00
2018-12-14T01:57:27.766Z,-1.10
2018-12-14T01:59:56.090Z,-1.00
2018-12-14T02:02:24.330Z,-1.10
2018-12-14T02:04:52.581Z,-1.20
2018-12-14T02:07:20.953Z,-1.30
2018-12-14T02:09:49.347Z,-1.30
2018-12-14T02:12:18.928Z,-1.20
2018-12-14T02:14:47.259Z,-1.30
2018-12-14T02:17:15.624Z,-1.30
2018-12-14T02:19:44.044Z,-1.30
2018-12-14T02:22:12.455Z,-1.40
2018-12-14T02:24:40.765Z,-1.40
2018-12-14T02:27:09.053Z,-1.40
2018-12-14T02:29:37.323Z,-1.30
2018-12-14T02:32:05.924Z,-1.30
2018-12-14T02:34:34.311Z,-1.30
2018-12-14T02:37:02.650Z,-1.30
2018-12-14T02:39:31.150Z,-1.30
2018-12-14T02:41:59.440Z,-1.30
2018-12-14T02:44:27.796Z,-1.30
2018-12-14T02:46:56.144Z,-1.50
2018-12-14T02:49:24.434Z,-1.50
2018-12-14T02:51:52.645Z,-1.40
2018-12-14T02:54:20.918Z,-1.40
2018-12-14T02:56:49.203Z,-1.40
2018-12-14T02:59:17.517Z,-1.40
2018-12-14T03:01:46.684Z,-1.30
2018-12-14T03:04:15.276Z,-1.30
2018-12-14T03:06:43.527Z,-1.30
2018-12-14T03:09:11.849Z,-1.40
2018-12-14T03:11:40.065Z,-1.40
2018-12-14T03:14:08.401Z,-1.30
2018-12-14T03:16:36.648Z,-1.30
2018-12-14T03:19:05.396Z,-1.40
2018-12-14T03:21:33.683Z,-1.40
2018-12-14T03:24:02.036Z,-1.40
2018-12-14T03:26:30.381Z,-1.30
2018-12-14T03:28:58.675Z,-1.20
2018-12-14T03:31:26.970Z,-1.20
2018-12-14T03:33:55.395Z,-1.20
2018-12-14T03:36:23.795Z,-1.30
2018-12-14T03:38:52.691Z,-1.30
2018-12-14T03:41:21.112Z,-1.30
2018-12-14T03:43:49.528Z,-1.30
2018-12-14T03:46:17.867Z,-1.30
2018-12-14T03:48:46.192Z,-1.20
2018-12-14T03:51:14.476Z,-1.20
2018-12-14T03:53:42.810Z,-1.10
2018-12-14T03:56:11.068Z,-1.00
2018-12-14T03:58:39.393Z,-0.90
2018-12-14T04:01:07.682Z,-1.00
2018-12-14T04:03:35.987Z,-1.00
2018-12-14T04:06:04.314Z,-1.00
2018-12-14T04:08:32.878Z,-1.20
2018-12-14T04:11:01.662Z,-1.20
2018-12-14T04:13:29.960Z,-1.10
2018-12-14T04:15:58.322Z,-1.10
2018-12-14T04:18:26.571Z,-1.00
2018-12-14T04:20:54.827Z,-0.90
2018-12-14T04:23:23.145Z,-0.90
2018-12-14T04:25:52.130Z,-1.00
2018-12-14T04:28:20.385Z,-1.00
2018-12-14T04:30:48.642Z,-0.90
2018-12-14T04:33:17.072Z,-0.90
2018-12-14T04:35:45.331Z,-0.90
2018-12-14T04:38:13.602Z,-0.90
2018-12-14T04:40:42.455Z,-1.00
2018-12-14T04:43:10.789Z,-1.00
2018-12-14T04:45:39.126Z,-1.00
2018-12-14T04:48:07.397Z,-1.00
2018-12-14T04:50:35.713Z,-1.00
2018-12-14T04:53:04.164Z,-0.90
2018-12-14T04:55:32.395Z,-1.00
2018-12-14T04:58:01.014Z,-0.90
2018-12-14T05:00:29.283Z,-0.90
2018-12-14T05:02:57.590Z,-0.80
2018-12-14T05:05:26.168Z,-0.80
2018-12-14T05:07:54.546Z,-0.80
2018-12-14T05:10:23.501Z,-0.70
2018-12-14T05:12:56.055Z,-0.70
2018-12-14T05:15:22.431Z,-0.70
2018-12-14T05:17:50.805Z,-0.80
2018-12-14T05:20:19.085Z,-0.80
2018-12-14T05:22:47.431Z,-0.80
2018-12-14T05:25:16.757Z,-0.80
2018-12-14T05:27:44.966Z,-0.80
2018-12-14T05:30:13.495Z,-0.80
2018-12-14T05:32:41.790Z,-0.90
2018-12-14T05:35:10.257Z,-0.90
2018-12-14T05:37:38.522Z,-0.90
2018-12-14T05:40:06.939Z,-0.80
2018-12-14T05:42:35.243Z,-0.90
2018-12-14T05:45:04.619Z,-0.90
2018-12-14T05:47:33.130Z,-0.90
2018-12-14T05:50:01.351Z,-1.00
2018-12-14T05:52:29.649Z,-1.00
2018-12-14T05:54:57.955Z,-1.00
2018-12-14T05:57:26.304Z,-1.10
2018-12-14T05:59:54.546Z,-1.20
2018-12-14T06:02:22.953Z,-1.20
2018-12-14T06:04:51.240Z,-1.20
2018-12-14T06:07:19.646Z,-1.30
2018-12-14T06:09:47.959Z,-1.40
2018-12-14T06:12:16.442Z,-1.40
2018-12-14T06:14:44.695Z,-1.30
2018-12-14T06:17:12.911Z,-1.40
2018-12-14T06:19:41.302Z,-1.40
2018-12-14T06:22:09.577Z,-1.40
2018-12-14T06:24:37.782Z,-1.40
2018-12-14T06:27:06.112Z,-1.50
2018-12-14T06:29:34.366Z,-1.50
2018-12-14T06:32:02.602Z,-1.50
2018-12-14T06:34:31.042Z,-1.40
2018-12-14T06:37:00.314Z,-1.40
2018-12-14T06:39:28.723Z,-1.40
2018-12-14T06:41:57.278Z,-1.30
2018-12-14T06:44:25.565Z,-1.30
2018-12-14T06:46:53.838Z,-1.20
2018-12-14T06:49:22.099Z,-1.20
2018-12-14T06:51:50.429Z,-1.10
2018-12-14T06:54:18.823Z,-1.10
2018-12-14T06:56:47.098Z,-1.10
2018-12-14T06:59:15.334Z,-1.00
2018-12-14T07:01:43.657Z,-1.20
2018-12-14T07:04:11.934Z,-1.20
2018-12-14T07:06:40.246Z,-1.10
2018-12-14T07:09:09.536Z,-1.10
2018-12-14T07:11:37.938Z,-1.10
2018-12-14T07:14:06.325Z,-1.20
2018-12-14T07:16:34.678Z,-1.20
2018-12-14T07:19:03.025Z,-1.30
2018-12-14T07:21:31.470Z,-1.30
2018-12-14T07:24:00.053Z,-1.30
2018-12-14T07:26:29.074Z,-1.20
2018-12-14T07:28:57.609Z,-1.30
2018-12-14T07:31:26.629Z,-1.30
2018-12-14T07:33:55.220Z,-1.30
2018-12-14T07:36:23.571Z,-1.30
2018-12-14T07:38:52.202Z,-1.40
2018-12-14T07:41:20.561Z,-1.40
2018-12-14T07:43:48.865Z,-1.40
2018-12-14T07:46:17.322Z,-1.30
2018-12-14T07:48:45.618Z,-1.30
2018-12-14T07:51:13.937Z,-1.20
2018-12-14T07:53:42.258Z,-1.30
2018-12-14T07:56:11.470Z,-1.20
2018-12-14T07:58:40.700Z,-1.20
2018-12-14T08:01:09.082Z,-1.10
2018-12-14T08:03:37.553Z,-1.10
2018-12-14T08:06:05.990Z,-1.00
2018-12-14T08:08:34.232Z,-1.00
2018-12-14T08:11:02.564Z,-1.10
2018-12-14T08:13:34.783Z,-1.10
2018-12-14T08:16:01.062Z,-1.10
2018-12-14T08:18:29.401Z,-1.10
2018-12-14T08:20:57.742Z,-1.00
2018-12-14T08:23:26.387Z,-0.90
2018-12-14T08:25:55.018Z,-0.90
2018-12-14T08:28:23.365Z,-0.90
2018-12-14T08:30:51.732Z,-1.00
2018-12-14T08:33:20.073Z,-1.10
2018-12-14T08:35:49.415Z,-1.10
2018-12-14T08:38:17.759Z,-1.10
2018-12-14T08:40:46.083Z,-1.10
2018-12-14T08:43:14.308Z,-1.00
2018-12-14T08:45:42.538Z,-1.10
2018-12-14T08:48:11.180Z,-1.00
2018-12-14T08:50:39.595Z,-1.10
2018-12-14T08:53:07.942Z,-1.10
2018-12-14T08:55:36.263Z,-1.10
2018-12-14T08:58:04.622Z,-1.10
2018-12-14T09:00:32.954Z,-1.10
2018-12-14T09:03:01.542Z,-1.20
2018-12-14T09:05:29.872Z,-1.20
2018-12-14T09:07:58.221Z,-1.10
2018-12-14T09:10:26.564Z,-1.10
2018-12-14T09:12:55.182Z,-1.10
2018-12-14T09:15:26.635Z,-1.10
2018-12-14T09:17:55.275Z,-1.10
2018-12-14T09:20:24.411Z,-1.20
2018-12-14T09:22:53.286Z,-1.10
2018-12-14T09:25:21.850Z,-1.10
2018-12-14T09:27:50.128Z,-1.20
2018-12-14T09:30:18.518Z,-1.10
2018-12-14T09:32:46.882Z,-1.00
2018-12-14T09:35:15.141Z,-1.00
2018-12-14T09:37:44.843Z,-0.90
2018-12-14T09:40:14.402Z,-0.90
2018-12-14T09:42:44.075Z,-1.10
2018-12-14T09:45:13.629Z,-1.00
2018-12-14T09:47:41.912Z,-1.00
2018-12-14T09:50:10.284Z,-0.90
2018-12-14T09:52:38.513Z,-0.90
2018-12-14T09:55:06.813Z,-0.80
2018-12-14T09:57:35.910Z,-0.80
2018-12-14T10:00:04.743Z,-0.80
2018-12-14T10:02:33.408Z,-0.80
2018-12-14T10:05:01.797Z,-0.80
2018-12-14T10:07:30.734Z,-0.80
2018-12-14T10:10:00.117Z,-0.80
2018-12-14T10:12:28.666Z,-0.70
2018-12-14T10:15:00.417Z,-0.80
2018-12-14T10:17:29.901Z,-0.80
2018-12-14T10:20:00.150Z,-0.70
2018-12-14T10:22:29.324Z,-0.70
2018-12-14T10:24:59.174Z,-0.70
2018-12-14T10:27:28.696Z,-0.70
2018-12-14T10:29:57.838Z,-0.60
2018-12-14T10:32:28.716Z,-0.50
2018-12-14T10:34:57.624Z,-0.50
2018-12-14T10:37:25.814Z,-0.50
2018-12-14T10:39:54.155Z,-0.50
2018-12-14T10:42:22.475Z,-0.60
2018-12-14T10:44:50.726Z,-0.80
2018-12-14T10:47:19.054Z,-0.80
2018-12-14T10:49:47.601Z,-0.70
2018-12-14T10:52:15.986Z,-0.60
2018-12-14T10:54:45.734Z,-0.60
2018-12-14T10:57:16.238Z,-0.60
2018-12-14T10:59:44.326Z,-0.60
2018-12-14T11:02:12.701Z,-0.60
2018-12-14T11:04:41.110Z,-0.60
2018-12-14T11:07:09.422Z,-0.60
2018-12-14T11:09:43.622Z,-0.50
2018-12-14T11:12:11.988Z,-0.50
2018-12-14T11:14:41.841Z,-0.40
2018-12-14T11:17:10.113Z,-0.50
2018-12-14T11:19:38.643Z,-0.50
2018-12-14T11:22:06.987Z,-0.50
2018-12-14T11:24:35.277Z,-0.50
2018-12-14T11:27:03.650Z,-0.50
2018-12-14T11:29:32.071Z,-0.50
2018-12-14T11:32:00.367Z,-0.50
2018-12-14T11:34:29.926Z,-0.60
2018-12-14T11:36:58.375Z,-0.50
2018-12-14T11:39:27.447Z,-0.50
2018-12-14T11:41:56.788Z,-0.40
2018-12-14T11:44:25.108Z,-0.40
2018-12-14T11:46:53.449Z,-0.50
2018-12-14T11:49:21.772Z,-0.50
2018-12-14T11:51:50.043Z,-0.50
2018-12-14T11:54:18.354Z,-0.40
2018-12-14T11:56:47.016Z,-0.50
2018-12-14T11:59:16.217Z,-0.50
2018-12-14T12:01:44.517Z,-0.50
2018-12-14T12:04:13.120Z,-0.50
2018-12-14T12:06:41.669Z,-0.50
2018-12-14T12:09:11.792Z,-0.50
2018-12-14T12:11:41.518Z,-0.50
2018-12-14T12:14:11.924Z,-0.50
2018-12-14T12:16:40.338Z,-0.50
2018-12-14T12:19:09.567Z,-0.40
2018-12-14T12:21:38.341Z,-0.40
2018-12-14T12:24:06.746Z,-0.40
2018-12-14T12:26:35.111Z,-0.40
2018-12-14T12:29:06.188Z,-0.40
2018-12-14T12:31:35.019Z,-0.30
2018-12-14T12:34:03.569Z,-0.30
2018-12-14T12:36:31.859Z,-0.30
2018-12-14T12:39:00.354Z,-0.40
2018-12-14T12:41:28.775Z,-0.40
2018-12-14T12:43:57.122Z,-0.40
2018-12-14T12:46:25.482Z,-0.40
2018-12-14T12:48:54.025Z,-0.40
2018-12-14T12:51:23.315Z,-0.40
2018-12-14T12:53:52.699Z,-0.50
2018-12-14T12:56:21.503Z,-0.40
2018-12-14T12:58:49.922Z,-0.40
2018-12-14T13:01:19.065Z,-0.40
2018-12-14T13:03:47.333Z,-0.30
2018-12-14T13:06:15.618Z,-0.50
2018-12-14T13:08:43.986Z,-0.40
2018-12-14T13:11:12.978Z,-0.40
2018-12-14T13:13:41.257Z,-0.50
2018-12-14T13:16:10.737Z,-0.50
2018-12-14T13:18:39.054Z,-0.50
2018-12-14T13:21:07.563Z,-0.40
2018-12-14T13:23:36.510Z,-0.30
2018-12-14T13:26:04.782Z,-0.30
2018-12-14T13:28:33.421Z,-0.30
2018-12-14T13:31:01.777Z,-0.20
2018-12-14T13:33:30.127Z,-0.30
2018-12-14T13:35:58.509Z,-0.40
2018-12-14T13:38:26.739Z,-0.30
2018-12-14T13:40:55.111Z,-0.40
2018-12-14T13:43:23.473Z,-0.50
2018-12-14T13:45:53.046Z,-0.50
2018-12-14T13:48:21.529Z,-0.40
2018-12-14T13:50:49.961Z,-0.50
2018-12-14T13:53:18.384Z,-0.40
2018-12-14T13:55:46.921Z,-0.40
2018-12-14T13:58:15.157Z,-0.40
2018-12-14T14:00:43.546Z,-0.30
2018-12-14T14:03:11.854Z,-0.30
2018-12-14T14:05:40.459Z,-0.30
2018-12-14T14:08:09.647Z,-0.40
2018-12-14T14:10:37.904Z,-0.40
2018-12-14T14:13:06.391Z,-0.30
2018-12-14T14:15:34.791Z,-0.30
2018-12-14T14:18:03.186Z,-0.30
2018-12-14T14:20:31.426Z,-0.30
2018-12-14T14:23:02.433Z,-0.30
2018-12-14T14:25:31.997Z,-0.30
2018-12-14T14:28:00.761Z,-0.40
2018-12-14T14:30:29.029Z,-0.40
2018-12-14T14:32:57.982Z,-0.50
2018-12-14T14:35:26.473Z,-0.60
2018-12-14T14:37:57.520Z,-0.50
2018-12-14T14:40:25.040Z,-0.50
2018-12-14T14:42:53.375Z,-0.40
2018-12-14T14:45:21.764Z,-0.60
2018-12-14T14:47:50.024Z,-0.50
2018-12-14T14:50:18.347Z,-0.60
2018-12-14T14:52:46.824Z,-0.60
2018-12-14T14:55:16.208Z,-0.60
2018-12-14T14:57:44.775Z,-0.60
2018-12-14T15:00:13.132Z,-0.60
2018-12-14T15:02:41.441Z,-0.70
2018-12-14T15:05:10.745Z,-0.70
2018-12-14T15:07:39.312Z,-0.70
2018-12-14T15:10:07.941Z,-0.70
2018-12-14T15:12:36.293Z,-0.70
2018-12-14T15:15:06.787Z,-0.70
2018-12-14T15:17:35.439Z,-0.80
2018-12-14T15:20:03.951Z,-0.80
2018-12-14T15:22:32.330Z,-0.80
2018-12-14T15:25:00.581Z,-0.80
2018-12-14T15:27:28.818Z,-0.80
2018-12-14T15:29:57.526Z,-0.90
2018-12-14T15:32:26.051Z,-0.80
2018-12-14T15:34:54.324Z,-0.80
2018-12-14T15:37:22.568Z,-0.80
2018-12-14T15:39:50.835Z,-0.90
2018-12-14T15:42:19.120Z,-0.90
2018-12-14T15:44:47.426Z,-0.90
2018-12-14T15:47:15.749Z,-0.90
2018-12-14T15:49:44.030Z,-1.00
2018-12-14T15:52:12.330Z,-0.90
2018-12-14T15:54:40.570Z,-1.00
2018-12-14T15:57:08.880Z,-1.00
2018-12-14T15:59:37.423Z,-1.00
2018-12-14T16:02:05.956Z,-1.00
2018-12-14T16:04:34.276Z,-1.00
2018-12-14T16:07:02.608Z,-1.00
2018-12-14T16:09:30.839Z,-1.00
2018-12-14T16:11:59.080Z,-1.00
2018-12-14T16:14:34.174Z,-1.00
2018-12-14T16:16:58.920Z,-1.00
2018-12-14T16:19:27.609Z,-1.10
2018-12-14T16:21:56.088Z,-1.10
2018-12-14T16:24:24.561Z,-1.10
2018-12-14T16:26:53.000Z,-1.20
2018-12-14T16:29:21.369Z,-1.20
2018-12-14T16:31:51.435Z,-1.10
2018-12-14T16:34:19.705Z,-1.10
2018-12-14T16:36:48.037Z,-1.10
2018-12-14T16:39:16.410Z,-1.10
2018-12-14T16:41:45.185Z,-1.00
2018-12-14T16:44:13.678Z,-1.00
2018-12-14T16:46:41.947Z,-1.00
2018-12-14T16:49:10.376Z,-1.00
2018-12-14T16:51:38.801Z,-1.00
2018-12-14T16:54:07.167Z,-1.00
2018-12-14T16:56:35.817Z,-1.00
2018-12-14T16:59:04.273Z,-1.30
2018-12-14T17:01:32.578Z,-1.20
2018-12-14T17:04:00.957Z,-1.20
2018-12-14T17:06:30.621Z,-1.20
2018-12-14T17:09:05.956Z,-1.20
2018-12-14T17:11:34.217Z,-1.20
2018-12-14T17:14:02.605Z,-1.30
2018-12-14T17:16:30.938Z,-1.30
2018-12-14T17:18:59.578Z,-1.30
2018-12-14T17:21:28.960Z,-1.30
2018-12-14T17:23:57.280Z,-1.30
2018-12-14T17:26:25.845Z,-1.30
2018-12-14T17:28:54.498Z,-1.30
2018-12-14T17:31:22.784Z,-1.30
2018-12-14T17:33:51.144Z,-1.30
2018-12-14T17:36:19.537Z,-1.40
2018-12-14T17:38:47.869Z,-1.40
2018-12-14T17:41:16.275Z,-1.40
2018-12-14T17:43:44.649Z,-1.40
2018-12-14T17:46:13.127Z,-1.40
2018-12-14T17:48:41.471Z,-1.40
2018-12-14T17:51:09.745Z,-1.40
2018-12-14T17:53:38.148Z,-1.40
2018-12-14T17:56:06.486Z,-1.40
2018-12-14T17:58:34.860Z,-1.40
2018-12-14T18:01:03.206Z,-1.50
2018-12-14T18:03:31.429Z,-1.50
2018-12-14T18:05:59.739Z,-1.50
2018-12-14T18:08:28.018Z,-1.60
2018-12-14T18:10:56.294Z,-1.70
2018-12-14T18:13:24.546Z,-1.70
2018-12-14T18:15:52.844Z,-1.70
2018-12-14T18:18:21.384Z,-1.70
2018-12-14T18:20:49.742Z,-1.70
2018-12-14T18:23:18.388Z,-1.70
2018-12-14T18:25:47.495Z,-1.60
2018-12-14T18:28:15.723Z,-1.60
2018-12-14T18:30:44.841Z,-1.60
2018-12-14T18:33:13.268Z,-1.50
2018-12-14T18:35:41.725Z,-1.50
2018-12-14T18:38:09.943Z,-1.50
2018-12-14T18:40:38.943Z,-1.60
2018-12-14T18:43:07.861Z,-1.60
2018-12-14T18:45:36.112Z,-1.50
2018-12-14T18:48:05.423Z,-1.50
2018-12-14T18:50:33.658Z,-1.50
2018-12-14T18:53:02.004Z,-1.50
2018-12-14T18:55:30.295Z,-1.40
2018-12-14T18:57:58.819Z,-1.40
2018-12-14T19:00:27.846Z,-1.40
2018-12-14T19:02:56.163Z,-1.50
2018-12-14T19:05:24.449Z,-1.40
2018-12-14T19:07:53.223Z,-1.50
2018-12-14T19:10:21.555Z,-1.50
2018-12-14T19:12:49.915Z,-1.50
2018-12-14T19:15:18.182Z,-1.40
2018-12-14T19:17:46.951Z,-1.40
2018-12-14T19:20:15.581Z,-1.30
2018-12-14T19:22:44.278Z,-1.30
2018-12-14T19:25:12.649Z,-1.30
2018-12-14T19:27:41.120Z,-1.20
2018-12-14T19:30:09.579Z,-1.20
2018-12-14T19:32:39.454Z,-1.20
2018-12-14T19:35:07.929Z,-1.20
2018-12-14T19:37:36.294Z,-1.10
2018-12-14T19:40:06.030Z,-1.10
2018-12-14T19:42:34.488Z,-1.10
2018-12-14T19:45:03.734Z,-1.10
2018-12-14T19:47:32.072Z,-1.10
2018-12-14T19:50:00.372Z,-1.00
2018-12-14T19:52:29.571Z,-1.00
2018-12-14T19:54:57.980Z,-1.00
2018-12-14T19:57:27.431Z,-1.00
2018-12-14T19:59:55.723Z,-1.00
2018-12-14T20:02:24.077Z,-1.00
2018-12-14T20:05:03.457Z,-1.00
2018-12-14T20:07:35.040Z,-0.90
2018-12-14T20:10:07.729Z,-1.00
2018-12-14T20:12:40.572Z,-0.90
2018-12-14T20:15:09.742Z,-0.90
2018-12-14T20:17:38.755Z,-0.90
2018-12-14T20:20:08.377Z,-0.90
2018-12-14T20:22:37.106Z,-0.90
2018-12-14T20:25:08.628Z,-0.80
2018-12-14T20:27:37.335Z,-0.90
2018-12-14T20:30:07.251Z,-0.80
2018-12-14T20:32:36.394Z,-0.80
2018-12-14T20:35:05.895Z,-0.80
2018-12-14T20:37:35.141Z,-0.80
2018-12-14T20:40:04.305Z,-0.80
2018-12-14T20:42:33.610Z,-0.80
2018-12-14T20:45:02.543Z,-0.80
2018-12-14T20:47:31.110Z,-0.80
2018-12-14T20:49:59.807Z,-0.80
2018-12-14T20:52:28.533Z,-0.80
2018-12-14T20:54:57.589Z,-0.80
2018-12-14T20:57:26.271Z,-0.80
2018-12-14T21:00:00.543Z,-0.80
2018-12-14T21:02:29.318Z,-0.80
2018-12-14T21:04:58.109Z,-0.90
2018-12-14T21:07:27.090Z,-0.90
2018-12-14T21:09:55.995Z,-0.90
2018-12-14T21:12:26.361Z,-0.90
2018-12-14T21:14:55.063Z,-0.90
2018-12-14T21:17:24.459Z,-0.90
2018-12-14T21:19:53.292Z,-1.00
2018-12-14T21:22:22.204Z,-1.10
2018-12-14T21:24:51.096Z,-1.20
2018-12-14T21:27:19.933Z,-1.20
2018-12-14T21:29:48.715Z,-1.20
2018-12-14T21:32:18.350Z,-1.20
2018-12-14T21:34:47.584Z,-1.20
2018-12-14T21:37:17.574Z,-1.20
2018-12-14T21:39:46.551Z,-1.20
2018-12-14T21:42:15.580Z,-1.20
2018-12-14T21:44:44.941Z,-1.20
2018-12-14T21:47:13.982Z,-1.20
2018-12-14T21:49:42.987Z,-1.30
2018-12-14T21:52:12.558Z,-1.30
2018-12-14T21:54:41.856Z,-1.20
2018-12-14T21:57:10.172Z,-1.20
2018-12-14T21:59:38.536Z,-1.30
2018-12-14T22:02:06.939Z,-1.40
2018-12-14T22:04:35.188Z,-1.40
2018-12-14T22:07:03.474Z,-1.40
2018-12-14T22:09:31.721Z,-1.40
2018-12-14T22:12:00.446Z,-1.40
2018-12-14T22:14:28.773Z,-1.40
2018-12-14T22:16:57.101Z,-1.40
2018-12-14T22:19:25.530Z,-1.40
2018-12-14T22:21:53.834Z,-1.40
2018-12-14T22:24:22.222Z,-1.40
2018-12-14T22:26:52.535Z,-1.40
2018-12-14T22:29:20.868Z,-1.40
2018-12-14T22:31:49.752Z,-1.30
2018-12-14T22:34:18.137Z,-1.30
2018-12-14T22:36:46.651Z,-1.40
2018-12-14T22:39:15.080Z,-1.40
2018-12-14T22:41:43.515Z,-1.50
2018-12-14T22:44:11.927Z,-1.50
2018-12-14T22:46:45.610Z,-1.70
2018-12-14T22:49:10.505Z,-1.70
2018-12-14T22:51:40.933Z,-1.70
2018-12-14T22:54:10.038Z,-1.80
2018-12-14T22:56:38.412Z,-1.80
2018-12-14T22:59:06.819Z,-1.80
2018-12-14T23:01:35.427Z,-1.80
2018-12-14T23:04:04.374Z,-1.80
2018-12-14T23:06:33.115Z,-1.70
2018-12-14T23:09:01.442Z,-1.70
2018-12-14T23:11:29.739Z,-1.70
2018-12-14T23:13:58.752Z,-1.70
2018-12-14T23:16:27.234Z,-1.70
2018-12-14T23:18:57.081Z,-1.60
2018-12-14T23:21:25.755Z,-1.60
2018-12-14T23:23:56.344Z,-1.60
2018-12-14T23:26:24.603Z,-1.60
2018-12-14T23:28:52.936Z,-1.50
2018-12-14T23:31:21.181Z,-1.50
2018-12-14T23:33:49.576Z,-1.60
2018-12-14T23:36:17.853Z,-1.60
2018-12-14T23:38:46.765Z,-1.70
2018-12-14T23:41:15.035Z,-1.70
2018-12-14T23:43:43.542Z,-1.70
2018-12-14T23:46:11.826Z,-1.70
2018-12-14T23:48:41.043Z,-1.70
2018-12-14T23:51:09.406Z,-1.70
2018-12-14T23:53:37.722Z,-1.60
2018-12-14T23:56:06.041Z,-1.60
2018-12-14T23:58:34.361Z,-1.60
